createdAt,value
2018-08-13T15:07:36.270Z,0.50
2018-08-13T15:10:40.185Z,0.70
2018-08-13T15:13:44.263Z,0.53
2018-08-13T15:16:48.522Z,0.73
2018-08-13T15:19:52.778Z,0.60
2018-08-13T15:22:56.937Z,0.40
2018-08-13T15:26:01.241Z,0.50
2018-08-13T15:29:05.317Z,0.50
2018-08-13T15:32:09.318Z,0.60
2018-08-13T15:35:13.341Z,0.57
2018-08-13T15:38:17.737Z,0.60
2018-08-13T15:41:21.927Z,0.37
2018-08-13T15:44:26.009Z,0.80
2018-08-13T15:47:30.574Z,0.40
2018-08-13T15:50:34.587Z,0.70
2018-08-13T15:53:38.623Z,0.40
2018-08-13T15:56:42.632Z,0.93
2018-08-13T15:59:46.855Z,0.43
2018-08-13T16:02:51.073Z,0.97
2018-08-13T16:20:53.438Z,0.30
2018-08-13T16:23:57.450Z,0.40
2018-08-13T16:27:01.428Z,0.40
2018-08-13T16:30:19.206Z,0.30
2018-08-13T16:33:23.215Z,0.60
2018-08-13T16:36:27.507Z,0.40
2018-08-13T16:39:31.513Z,0.37
2018-08-13T16:42:35.460Z,0.50
2018-08-13T16:45:39.462Z,0.40
2018-08-13T16:48:43.701Z,0.83
2018-08-13T16:51:49.086Z,0.80
2018-08-13T16:54:53.069Z,0.60
2018-08-13T16:57:57.484Z,0.50
2018-08-13T17:01:01.943Z,0.50
2018-08-13T17:04:05.990Z,0.60
2018-08-13T17:07:10.301Z,0.50
2018-08-13T17:10:17.896Z,0.50
2018-08-13T17:13:22.251Z,0.50
2018-08-13T17:16:26.134Z,0.40
2018-08-13T17:19:30.026Z,0.30
2018-08-13T17:22:34.141Z,0.33
2018-08-13T17:25:38.096Z,0.40
2018-08-13T17:28:42.399Z,0.40
2018-08-13T17:31:46.737Z,0.30
2018-08-13T17:34:50.721Z,0.70
2018-08-13T17:37:54.637Z,0.40
2018-08-13T17:40:58.526Z,0.50
2018-08-13T17:44:02.410Z,0.60
2018-08-13T17:47:06.326Z,1.37
2018-08-13T17:50:13.259Z,0.40
2018-08-13T17:53:17.461Z,0.50
2018-08-13T17:56:21.604Z,0.50
2018-08-13T17:59:25.663Z,0.60
2018-08-13T18:02:29.955Z,0.53
2018-08-13T18:05:33.945Z,0.50
2018-08-13T18:08:37.844Z,0.87
2018-08-13T18:11:41.766Z,0.87
2018-08-13T18:14:45.677Z,0.57
2018-08-13T18:17:49.585Z,0.50
2018-08-13T18:20:53.739Z,0.50
2018-08-13T18:23:58.017Z,0.40
2018-08-13T18:27:02.017Z,0.40
2018-08-13T18:30:08.660Z,1.00
2018-08-13T18:33:12.723Z,1.17
2018-08-13T18:36:16.677Z,1.47
2018-08-13T18:39:21.801Z,0.53
2018-08-13T18:42:25.742Z,0.50
2018-08-13T18:45:29.906Z,0.80
2018-08-13T18:48:33.898Z,3.23
2018-08-13T18:51:37.975Z,0.83
2018-08-13T18:54:42.253Z,0.70
2018-08-13T18:57:59.542Z,0.50
2018-08-13T19:35:00.448Z,0.70
2018-08-13T19:38:04.782Z,0.50
2018-08-13T19:41:08.840Z,0.90
2018-08-13T19:44:13.141Z,2.23
2018-08-13T19:47:17.565Z,0.80
2018-08-13T19:50:21.719Z,0.70
2018-08-13T19:53:25.928Z,0.50
2018-08-13T19:56:30.099Z,0.73
2018-08-13T19:59:34.131Z,0.97
2018-08-13T20:02:39.049Z,0.77
2018-08-13T20:05:43.282Z,0.77
2018-08-13T20:08:47.775Z,0.70
2018-08-13T20:11:55.062Z,0.90
2018-08-13T20:14:59.322Z,0.60
2018-08-13T20:18:03.401Z,0.80
2018-08-13T20:21:07.951Z,0.60
2018-08-13T20:24:12.017Z,0.80
2018-08-13T20:27:16.570Z,2.33
2018-08-13T20:30:21.996Z,0.97
2018-08-13T20:33:26.084Z,0.70
2018-08-13T20:36:30.418Z,0.60
2018-08-13T20:39:34.450Z,0.90
2018-08-13T20:42:39.930Z,0.80
2018-08-13T20:45:44.430Z,0.70
2018-08-13T20:48:48.671Z,0.70
2018-08-13T20:51:53.404Z,0.80
2018-08-13T20:54:57.522Z,0.80
2018-08-13T20:58:01.659Z,0.90
2018-08-13T21:01:05.815Z,1.40
2018-08-13T21:04:10.512Z,0.63
2018-08-13T21:07:14.871Z,1.20
2018-08-13T21:10:20.838Z,1.00
2018-08-13T21:13:25.035Z,0.67
2018-08-13T21:16:29.277Z,1.37
2018-08-13T21:19:33.866Z,0.60
2018-08-13T21:22:38.468Z,0.70
2018-08-13T21:25:42.964Z,1.53
2018-08-13T21:28:47.382Z,1.00
2018-08-13T21:31:51.552Z,0.80
2018-08-13T21:34:55.728Z,0.50
2018-08-13T21:38:00.246Z,0.67
2018-08-13T21:41:04.503Z,0.83
2018-08-13T21:44:08.652Z,0.90
2018-08-13T21:47:12.751Z,0.70
2018-08-13T21:50:19.028Z,0.60
2018-08-13T21:53:23.377Z,0.50
2018-08-13T21:56:27.441Z,0.77
2018-08-13T21:59:31.459Z,0.90
2018-08-13T22:02:35.703Z,0.87
2018-08-13T22:05:39.922Z,0.60
2018-08-13T22:08:44.009Z,0.77
2018-08-13T22:11:48.022Z,1.33
2018-08-13T22:14:52.332Z,0.80
2018-08-13T22:17:58.223Z,0.40
2018-08-13T22:21:02.632Z,0.50
2018-08-13T22:24:17.979Z,0.63
2018-08-13T22:27:22.039Z,0.80
2018-08-13T22:30:26.446Z,0.70
2018-08-13T22:33:30.510Z,0.83
2018-08-13T22:36:34.570Z,0.90
2018-08-13T22:39:38.682Z,0.77
2018-08-13T22:42:43.659Z,0.73
2018-08-13T22:45:47.696Z,1.20
2018-08-13T22:48:52.182Z,1.13
2018-08-13T22:51:56.332Z,1.00
2018-08-13T22:55:01.078Z,1.43
2018-08-13T22:58:05.327Z,1.50
2018-08-13T23:01:09.465Z,1.13
2018-08-13T23:04:13.525Z,2.53
2018-08-13T23:07:17.736Z,1.90
2018-08-13T23:10:23.079Z,2.80
2018-08-13T23:13:28.118Z,2.50
2018-08-13T23:16:32.256Z,2.20
2018-08-13T23:19:36.626Z,2.73
2018-08-13T23:22:53.834Z,3.10
2018-08-13T23:25:58.238Z,5.10
2018-08-13T23:29:02.282Z,3.27
2018-08-13T23:32:06.509Z,4.30
2018-08-13T23:35:10.702Z,7.93
2018-08-13T23:38:14.885Z,8.03
2018-08-13T23:41:18.986Z,5.00
2018-08-13T23:44:23.160Z,4.43
2018-08-13T23:47:27.318Z,5.37
2018-08-13T23:50:31.554Z,4.27
2018-08-13T23:53:35.489Z,8.63
2018-08-13T23:56:39.492Z,11.10
2018-08-13T23:59:43.521Z,6.10
